createdAt,value
2019-03-12T00:01:36.980Z,1.60
2019-03-12T00:06:29.463Z,1.60
2019-03-12T00:11:22.025Z,1.70
2019-03-12T00:16:14.550Z,1.70
2019-03-12T00:21:07.030Z,1.70
2019-03-12T00:25:59.543Z,1.70
2019-03-12T00:30:52.188Z,1.80
2019-03-12T00:35:44.412Z,1.80
2019-03-12T00:40:36.905Z,1.70
2019-03-12T00:45:29.185Z,1.70
2019-03-12T00:50:21.528Z,1.60
2019-03-12T00:55:14.322Z,1.50
2019-03-12T01:00:12.813Z,1.30
2019-03-12T01:05:05.873Z,1.20
2019-03-12T01:09:58.273Z,1.10
2019-03-12T01:14:50.991Z,1.10
2019-03-12T01:19:43.387Z,1.00
2019-03-12T01:24:35.870Z,0.90
2019-03-12T01:29:28.401Z,0.80
2019-03-12T01:34:20.732Z,0.80
2019-03-12T01:39:13.485Z,0.80
2019-03-12T01:44:06.045Z,0.90
2019-03-12T01:48:58.693Z,1.00
2019-03-12T01:53:51.221Z,1.10
2019-03-12T01:58:43.462Z,1.10
2019-03-12T02:03:35.912Z,1.10
2019-03-12T02:08:28.326Z,1.00
2019-03-12T02:13:21.057Z,1.00
2019-03-12T02:18:13.604Z,0.90
2019-03-12T02:23:06.055Z,0.90
2019-03-12T02:27:58.593Z,0.90
2019-03-12T02:32:50.967Z,0.90
2019-03-12T02:37:43.689Z,0.90
2019-03-12T02:42:35.917Z,0.90
2019-03-12T02:47:28.223Z,0.90
2019-03-12T02:52:21.083Z,0.80
2019-03-12T02:57:13.597Z,0.70
2019-03-12T03:02:06.228Z,0.70
2019-03-12T03:07:00.158Z,0.70
2019-03-12T03:11:52.669Z,0.70
2019-03-12T03:16:45.213Z,0.60
2019-03-12T03:21:37.847Z,0.60
2019-03-12T03:26:30.566Z,0.60
2019-03-12T03:31:23.109Z,0.60
2019-03-12T03:36:15.465Z,0.70
2019-03-12T03:41:08.048Z,0.80
2019-03-12T03:46:00.766Z,0.80
2019-03-12T03:50:53.359Z,0.80
2019-03-12T03:55:45.798Z,0.80
2019-03-12T04:00:38.265Z,0.80
2019-03-12T04:05:30.808Z,0.80
2019-03-12T04:10:23.177Z,0.80
2019-03-12T04:15:17.977Z,0.70
2019-03-12T04:20:12.045Z,0.70
2019-03-12T04:25:05.036Z,0.80
2019-03-12T04:29:57.749Z,0.80
2019-03-12T04:34:49.825Z,0.80
2019-03-12T04:39:42.417Z,0.90
2019-03-12T04:44:34.975Z,0.90
2019-03-12T04:49:27.609Z,0.90
2019-03-12T04:54:20.103Z,0.80
2019-03-12T04:59:12.381Z,0.80
2019-03-12T05:04:05.062Z,0.70
2019-03-12T05:08:57.375Z,0.60
2019-03-12T05:14:17.412Z,0.50
2019-03-12T05:19:09.904Z,0.40
2019-03-12T05:24:02.539Z,0.40
2019-03-12T05:28:55.191Z,0.40
2019-03-12T05:33:47.821Z,0.40
2019-03-12T05:38:39.925Z,0.50
2019-03-12T05:43:33.477Z,0.50
2019-03-12T05:48:25.640Z,0.50
2019-03-12T05:53:18.241Z,0.50
2019-03-12T05:58:10.700Z,0.50
2019-03-12T06:03:03.166Z,0.50
2019-03-12T06:07:55.967Z,0.60
2019-03-12T06:12:48.394Z,0.80
2019-03-12T06:17:40.834Z,0.90
2019-03-12T06:22:33.547Z,1.10
2019-03-12T06:27:26.077Z,1.40
2019-03-12T06:32:20.297Z,1.70
2019-03-12T06:37:20.135Z,2.10
2019-03-12T06:42:14.068Z,2.40
2019-03-12T06:47:31.828Z,2.70
2019-03-12T06:52:29.051Z,3.20
2019-03-12T06:57:23.077Z,3.50
2019-03-12T07:02:17.443Z,3.90
2019-03-12T07:07:12.667Z,4.40
2019-03-12T07:12:23.982Z,5.10
2019-03-12T07:17:18.596Z,5.50
2019-03-12T07:22:21.505Z,6.00
2019-03-12T07:27:31.052Z,6.50
2019-03-12T07:32:41.379Z,7.40
2019-03-12T07:37:35.753Z,7.50
2019-03-12T07:42:38.690Z,7.30
2019-03-12T07:47:42.173Z,7.70
2019-03-12T07:52:41.841Z,9.20
2019-03-12T07:57:50.944Z,10.60
2019-03-12T08:02:44.936Z,12.00
2019-03-12T08:07:38.910Z,13.50
2019-03-12T08:12:38.611Z,14.80
2019-03-12T08:17:35.537Z,15.90
2019-03-12T08:22:38.618Z,16.40
2019-03-12T08:27:32.621Z,17.20
2019-03-12T08:32:43.205Z,18.50
2019-03-12T08:37:46.633Z,19.30
2019-03-12T08:42:53.700Z,18.70
2019-03-12T08:47:39.226Z,17.30
2019-03-12T08:52:33.289Z,16.20
2019-03-12T08:57:36.105Z,15.70
2019-03-12T09:02:35.989Z,15.20
2019-03-12T09:07:33.033Z,15.30
2019-03-12T09:12:30.169Z,16.20
2019-03-12T09:17:39.481Z,16.80
2019-03-12T09:22:33.726Z,16.70
2019-03-12T09:27:45.719Z,15.70
2019-03-12T09:32:45.835Z,14.20
2019-03-12T09:37:49.084Z,13.20
2019-03-12T09:42:59.907Z,12.50
2019-03-12T09:47:54.017Z,12.30
2019-03-12T09:53:03.409Z,13.00
2019-03-12T09:58:06.818Z,14.40
2019-03-12T10:03:03.788Z,15.30
2019-03-12T10:08:13.498Z,15.90
2019-03-12T10:13:07.810Z,16.90
2019-03-12T10:18:04.614Z,17.60
2019-03-12T10:23:04.653Z,17.10
2019-03-12T10:27:58.975Z,16.10
2019-03-12T10:33:07.748Z,15.20
2019-03-12T10:38:55.089Z,14.20
2019-03-12T10:43:47.853Z,13.30
2019-03-12T10:48:40.169Z,12.70
2019-03-12T10:53:32.769Z,12.40
2019-03-12T10:58:25.642Z,12.80
2019-03-12T11:03:18.444Z,14.10
2019-03-12T11:08:10.853Z,16.10
2019-03-12T11:13:03.338Z,17.50
2019-03-12T11:17:55.971Z,18.20
2019-03-12T11:22:48.421Z,18.20
2019-03-12T11:27:41.057Z,17.70
2019-03-12T11:32:33.734Z,16.90
2019-03-12T11:37:26.546Z,16.00
2019-03-12T11:42:19.300Z,15.20
2019-03-12T11:47:12.087Z,14.90
2019-03-12T11:52:04.733Z,15.30
2019-03-12T11:56:57.688Z,15.70
2019-03-12T12:01:50.494Z,16.90
2019-03-12T12:06:43.797Z,18.00
2019-03-12T12:11:36.556Z,18.60
2019-03-12T12:16:30.074Z,18.90
2019-03-12T12:21:22.497Z,18.90
2019-03-12T12:26:15.185Z,17.80
2019-03-12T12:31:07.789Z,16.60
2019-03-12T12:36:00.213Z,16.30
2019-03-12T12:40:52.668Z,15.80
2019-03-12T12:45:45.570Z,15.60
2019-03-12T12:50:38.141Z,16.00
2019-03-12T12:55:31.078Z,16.10
2019-03-12T13:00:25.790Z,15.90
2019-03-12T13:05:18.486Z,15.60
2019-03-12T13:10:19.492Z,15.60
2019-03-12T13:15:10.821Z,15.80
2019-03-12T13:20:03.456Z,16.40
2019-03-12T13:24:56.000Z,16.80
2019-03-12T13:29:48.638Z,17.00
2019-03-12T13:34:41.242Z,17.20
2019-03-12T13:39:34.003Z,16.80
2019-03-12T13:44:26.698Z,16.30
2019-03-12T13:49:19.183Z,15.80
2019-03-12T13:54:11.617Z,15.50
2019-03-12T13:59:04.829Z,15.00
2019-03-12T14:04:09.674Z,14.70
2019-03-12T14:08:51.160Z,14.30
2019-03-12T14:13:43.799Z,13.90
2019-03-12T14:18:36.637Z,13.60
2019-03-12T14:23:35.042Z,13.50
2019-03-12T14:28:27.458Z,13.70
2019-03-12T14:33:20.110Z,13.90
2019-03-12T14:38:13.045Z,14.10
2019-03-12T14:43:05.769Z,14.10
2019-03-12T14:47:58.220Z,13.60
2019-03-12T14:52:53.727Z,13.10
2019-03-12T14:57:46.469Z,12.90
2019-03-12T15:02:39.128Z,12.70
2019-03-12T15:07:34.793Z,12.50
2019-03-12T15:12:27.302Z,12.20
2019-03-12T15:17:19.674Z,12.10
2019-03-12T15:22:12.103Z,12.00
2019-03-12T15:27:04.650Z,11.90
2019-03-12T15:32:04.154Z,12.00
2019-03-12T15:36:51.715Z,12.00
2019-03-12T15:41:44.633Z,11.90
2019-03-12T15:46:37.309Z,11.80
2019-03-12T15:51:30.042Z,11.70
2019-03-12T15:56:22.564Z,11.70
2019-03-12T16:01:16.234Z,11.60
2019-03-12T16:06:09.030Z,11.50
2019-03-12T16:11:01.699Z,11.30
2019-03-12T16:15:54.358Z,11.30
2019-03-12T16:20:47.089Z,11.20
2019-03-12T16:25:39.797Z,11.20
2019-03-12T16:30:32.652Z,11.10
2019-03-12T16:35:25.537Z,11.10
2019-03-12T16:40:19.335Z,11.00
2019-03-12T16:45:13.673Z,11.00
2019-03-12T16:50:09.625Z,10.90
2019-03-12T16:55:01.665Z,10.80
2019-03-12T16:59:54.109Z,10.70
2019-03-12T17:04:46.781Z,10.70
2019-03-12T17:09:39.415Z,10.70
2019-03-12T17:14:38.831Z,10.70
2019-03-12T17:19:25.922Z,10.70
2019-03-12T17:24:18.613Z,10.60
2019-03-12T17:29:10.900Z,10.70
2019-03-12T17:34:03.482Z,10.60
2019-03-12T17:38:56.189Z,10.60
2019-03-12T17:43:48.712Z,10.60
2019-03-12T17:48:41.457Z,10.50
2019-03-12T17:53:33.870Z,10.50
2019-03-12T17:58:26.174Z,10.40
2019-03-12T18:03:18.759Z,10.40
2019-03-12T18:08:11.165Z,10.40
2019-03-12T18:13:03.616Z,10.40
2019-03-12T18:17:56.136Z,10.40
2019-03-12T18:22:48.637Z,10.40
2019-03-12T18:27:41.342Z,10.40
2019-03-12T18:32:34.000Z,10.40
2019-03-12T18:37:26.637Z,10.40
2019-03-12T18:42:18.879Z,10.40
2019-03-12T18:47:11.261Z,10.40
2019-03-12T18:52:04.033Z,10.40
2019-03-12T18:56:56.608Z,10.40
2019-03-12T19:01:49.145Z,10.40
2019-03-12T19:06:41.554Z,10.40
2019-03-12T19:11:37.580Z,10.40
2019-03-12T19:16:28.014Z,10.30
2019-03-12T19:21:20.457Z,10.30
2019-03-12T19:26:12.924Z,10.30
2019-03-12T19:31:22.740Z,10.30
2019-03-12T19:36:15.621Z,10.30
2019-03-12T19:41:08.238Z,10.30
2019-03-12T19:46:00.733Z,10.30
2019-03-12T19:50:53.460Z,10.30
2019-03-12T19:55:58.191Z,10.30
2019-03-12T20:00:50.746Z,10.30
2019-03-12T20:05:43.246Z,10.40
2019-03-12T20:10:44.427Z,10.50
2019-03-12T20:16:14.355Z,10.60
2019-03-12T20:21:28.465Z,10.70
2019-03-12T20:26:29.769Z,10.70
2019-03-12T20:31:31.201Z,10.80
2019-03-12T20:36:43.013Z,10.90
2019-03-12T20:42:07.921Z,10.90
2019-03-12T20:47:12.244Z,10.90
2019-03-12T20:52:17.217Z,10.80
2019-03-12T20:57:46.033Z,10.70
2019-03-12T21:02:41.615Z,10.70
2019-03-12T21:08:10.217Z,10.70
2019-03-12T21:13:30.249Z,10.70
2019-03-12T21:18:37.588Z,10.70
2019-03-12T21:23:49.496Z,10.70
2019-03-12T21:29:05.605Z,10.80
2019-03-12T21:33:58.143Z,10.80
2019-03-12T21:38:50.635Z,10.70
2019-03-12T21:43:43.157Z,10.50
2019-03-12T21:48:35.547Z,10.10
2019-03-12T21:53:28.032Z,9.50
2019-03-12T21:58:20.434Z,9.00
2019-03-12T22:03:16.100Z,8.60
2019-03-12T22:08:06.957Z,8.20
2019-03-12T22:12:59.257Z,7.90
2019-03-12T22:17:52.029Z,7.60
2019-03-12T22:22:46.375Z,7.40
2019-03-12T22:27:38.780Z,7.30
2019-03-12T22:32:31.009Z,7.10
2019-03-12T22:37:23.393Z,7.00
2019-03-12T22:42:15.795Z,6.90
2019-03-12T22:47:08.377Z,6.80
2019-03-12T22:52:00.764Z,6.70
2019-03-12T22:56:53.404Z,6.70
2019-03-12T23:01:46.186Z,6.60
2019-03-12T23:06:38.695Z,6.60
2019-03-12T23:11:31.172Z,6.50
2019-03-12T23:16:23.797Z,6.50
2019-03-12T23:21:16.692Z,6.40
2019-03-12T23:26:09.114Z,6.30
2019-03-12T23:31:01.377Z,6.20
2019-03-12T23:35:54.057Z,6.10
2019-03-12T23:40:46.588Z,6.10
2019-03-12T23:45:39.356Z,6.10
2019-03-12T23:50:31.789Z,6.00
2019-03-12T23:55:24.341Z,6.00
